Terminal Aerodrome Forecast
Issued by NWS

Home | Current Version | Previous Version | Text Only | Print | Product List | Glossary On
Versions: 1 2 3 4 5 6 7 8 9 10 11 12 13 14 15 16 17 18 19 20 21 22 23 24 25
000
FTPA31 PHFO 250500
TAFKOA
TAF
PHKO 250520Z 2506/2606 16007KT P6SM FEW030 BKN050
     FM250800 VRB06KT P6SM SCT020 BKN040
     FM252000 23010KT P6SM FEW040 BKN060
     FM260300 VRB06KT P6SM FEW035 BKN050=

USA.gov is the U.S. government's official web portal to all federal, state and local government web resources and services.